sensor_id;sensor_type;location;lat;lon;timestamp;P1;durP1;ratioP1;P2;durP2;ratioP2
33714;SDS011;20043;50.998;4.754;2023-05-10T00:01:07;33.28;;;20.70;;
33714;SDS011;20043;50.998;4.754;2023-05-10T00:03:32;29.73;;;19.98;;
33714;SDS011;20043;50.998;4.754;2023-05-10T00:05:58;31.75;;;20.58;;
33714;SDS011;20043;50.998;4.754;2023-05-10T00:08:24;26.38;;;19.15;;
33714;SDS011;20043;50.998;4.754;2023-05-10T00:10:49;28.27;;;19.35;;
33714;SDS011;20043;50.998;4.754;2023-05-10T00:13:15;29.67;;;19.40;;
33714;SDS011;20043;50.998;4.754;2023-05-10T00:15:41;28.88;;;19.80;;
33714;SDS011;20043;50.998;4.754;2023-05-10T00:18:06;32.63;;;19.50;;
33714;SDS011;20043;50.998;4.754;2023-05-10T00:20:32;33.00;;;18.90;;
33714;SDS011;20043;50.998;4.754;2023-05-10T00:22:58;28.52;;;17.85;;
33714;SDS011;20043;50.998;4.754;2023-05-10T00:25:23;28.67;;;16.70;;
33714;SDS011;20043;50.998;4.754;2023-05-10T00:27:49;36.28;;;16.63;;
33714;SDS011;20043;50.998;4.754;2023-05-10T00:30:15;31.42;;;17.00;;
33714;SDS011;20043;50.998;4.754;2023-05-10T00:32:41;28.00;;;15.57;;
33714;SDS011;20043;50.998;4.754;2023-05-10T00:35:07;25.65;;;15.75;;
33714;SDS011;20043;50.998;4.754;2023-05-10T00:37:33;28.75;;;15.85;;
33714;SDS011;20043;50.998;4.754;2023-05-10T00:39:58;26.40;;;14.05;;
33714;SDS011;20043;50.998;4.754;2023-05-10T00:42:24;27.60;;;14.60;;
33714;SDS011;20043;50.998;4.754;2023-05-10T00:44:50;29.45;;;14.60;;
33714;SDS011;20043;50.998;4.754;2023-05-10T00:47:16;26.55;;;14.32;;
33714;SDS011;20043;50.998;4.754;2023-05-10T00:49:42;29.65;;;14.48;;
33714;SDS011;20043;50.998;4.754;2023-05-10T00:52:09;36.78;;;15.60;;
33714;SDS011;20043;50.998;4.754;2023-05-10T00:54:35;30.73;;;15.02;;
33714;SDS011;20043;50.998;4.754;2023-05-10T00:57:01;27.13;;;14.57;;
33714;SDS011;20043;50.998;4.754;2023-05-10T00:59:27;30.02;;;14.63;;
33714;SDS011;20043;50.998;4.754;2023-05-10T01:01:53;28.27;;;14.07;;
33714;SDS011;20043;50.998;4.754;2023-05-10T01:04:19;30.25;;;14.60;;
33714;SDS011;20043;50.998;4.754;2023-05-10T01:06:50;30.30;;;15.13;;
33714;SDS011;20043;50.998;4.754;2023-05-10T01:09:16;34.20;;;14.80;;
33714;SDS011;20043;50.998;4.754;2023-05-10T01:11:43;29.75;;;14.82;;
33714;SDS011;20043;50.998;4.754;2023-05-10T01:14:09;35.88;;;16.25;;
33714;SDS011;20043;50.998;4.754;2023-05-10T01:16:39;31.00;;;15.40;;
33714;SDS011;20043;50.998;4.754;2023-05-10T01:19:08;30.33;;;15.68;;
33714;SDS011;20043;50.998;4.754;2023-05-10T01:38:16;31.58;;;16.17;;
33714;SDS011;20043;50.998;4.754;2023-05-10T01:46:35;33.10;;;16.73;;
33714;SDS011;20043;50.998;4.754;2023-05-10T01:49:03;32.25;;;17.00;;
33714;SDS011;20043;50.998;4.754;2023-05-10T01:51:44;36.78;;;18.45;;
33714;SDS011;20043;50.998;4.754;2023-05-10T01:54:12;35.83;;;17.02;;
33714;SDS011;20043;50.998;4.754;2023-05-10T01:56:41;34.05;;;18.00;;
33714;SDS011;20043;50.998;4.754;2023-05-10T01:59:11;34.95;;;17.42;;
33714;SDS011;20043;50.998;4.754;2023-05-10T02:01:40;34.50;;;17.63;;
33714;SDS011;20043;50.998;4.754;2023-05-10T02:04:07;34.05;;;18.77;;
33714;SDS011;20043;50.998;4.754;2023-05-10T02:06:34;34.50;;;18.38;;
33714;SDS011;20043;50.998;4.754;2023-05-10T02:09:01;35.95;;;18.63;;
33714;SDS011;20043;50.998;4.754;2023-05-10T02:11:28;32.83;;;18.58;;
33714;SDS011;20043;50.998;4.754;2023-05-10T02:13:54;35.75;;;19.27;;
33714;SDS011;20043;50.998;4.754;2023-05-10T02:16:22;34.42;;;18.98;;
33714;SDS011;20043;50.998;4.754;2023-05-10T02:18:50;35.08;;;19.40;;
33714;SDS011;20043;50.998;4.754;2023-05-10T02:21:17;34.40;;;18.95;;
33714;SDS011;20043;50.998;4.754;2023-05-10T02:23:45;30.38;;;18.98;;
33714;SDS011;20043;50.998;4.754;2023-05-10T02:26:15;33.75;;;19.17;;
33714;SDS011;20043;50.998;4.754;2023-05-10T02:28:41;35.35;;;18.88;;
33714;SDS011;20043;50.998;4.754;2023-05-10T02:31:08;38.80;;;20.58;;
33714;SDS011;20043;50.998;4.754;2023-05-10T02:33:35;36.90;;;20.08;;
33714;SDS011;20043;50.998;4.754;2023-05-10T02:36:05;35.75;;;20.95;;
33714;SDS011;20043;50.998;4.754;2023-05-10T02:38:32;40.60;;;20.02;;
33714;SDS011;20043;50.998;4.754;2023-05-10T02:40:59;40.97;;;21.67;;
33714;SDS011;20043;50.998;4.754;2023-05-10T02:43:26;39.53;;;21.52;;
33714;SDS011;20043;50.998;4.754;2023-05-10T02:45:55;37.28;;;22.20;;
33714;SDS011;20043;50.998;4.754;2023-05-10T02:48:20;39.45;;;21.33;;
33714;SDS011;20043;50.998;4.754;2023-05-10T02:50:46;38.90;;;22.27;;
33714;SDS011;20043;50.998;4.754;2023-05-10T02:53:18;37.20;;;21.75;;
33714;SDS011;20043;50.998;4.754;2023-05-10T02:55:49;38.78;;;21.98;;
33714;SDS011;20043;50.998;4.754;2023-05-10T02:58:17;44.25;;;23.02;;
33714;SDS011;20043;50.998;4.754;2023-05-10T03:00:44;39.63;;;22.63;;
33714;SDS011;20043;50.998;4.754;2023-05-10T03:03:11;35.42;;;20.27;;
33714;SDS011;20043;50.998;4.754;2023-05-10T03:05:37;35.67;;;21.23;;
33714;SDS011;20043;50.998;4.754;2023-05-10T03:08:02;40.50;;;21.65;;
33714;SDS011;20043;50.998;4.754;2023-05-10T03:10:29;38.30;;;22.02;;
33714;SDS011;20043;50.998;4.754;2023-05-10T03:18:15;35.67;;;21.33;;
33714;SDS011;20043;50.998;4.754;2023-05-10T03:20:50;34.95;;;21.73;;
33714;SDS011;20043;50.998;4.754;2023-05-10T03:23:26;38.03;;;21.48;;
33714;SDS011;20043;50.998;4.754;2023-05-10T03:25:55;35.47;;;20.42;;
33714;SDS011;20043;50.998;4.754;2023-05-10T03:28:21;36.25;;;20.45;;
33714;SDS011;20043;50.998;4.754;2023-05-10T03:30:49;36.67;;;19.95;;
33714;SDS011;20043;50.998;4.754;2023-05-10T03:33:18;37.40;;;20.25;;
33714;SDS011;20043;50.998;4.754;2023-05-10T03:35:44;37.05;;;21.65;;
33714;SDS011;20043;50.998;4.754;2023-05-10T03:38:11;35.38;;;21.98;;
33714;SDS011;20043;50.998;4.754;2023-05-10T03:40:37;34.58;;;20.70;;
33714;SDS011;20043;50.998;4.754;2023-05-10T03:43:03;44.28;;;23.65;;
33714;SDS011;20043;50.998;4.754;2023-05-10T03:45:29;39.75;;;22.95;;
33714;SDS011;20043;50.998;4.754;2023-05-10T03:47:55;41.45;;;23.55;;
33714;SDS011;20043;50.998;4.754;2023-05-10T03:50:22;49.78;;;25.10;;
33714;SDS011;20043;50.998;4.754;2023-05-10T03:52:48;45.03;;;24.88;;
33714;SDS011;20043;50.998;4.754;2023-05-10T03:55:13;44.60;;;24.52;;
33714;SDS011;20043;50.998;4.754;2023-05-10T03:57:39;42.15;;;25.10;;
33714;SDS011;20043;50.998;4.754;2023-05-10T04:00:05;47.28;;;25.92;;
33714;SDS011;20043;50.998;4.754;2023-05-10T04:02:31;45.20;;;26.40;;
33714;SDS011;20043;50.998;4.754;2023-05-10T04:04:56;50.78;;;27.85;;
33714;SDS011;20043;50.998;4.754;2023-05-10T04:07:22;51.28;;;28.55;;
33714;SDS011;20043;50.998;4.754;2023-05-10T04:09:48;48.15;;;28.60;;
33714;SDS011;20043;50.998;4.754;2023-05-10T04:12:13;50.55;;;29.90;;
33714;SDS011;20043;50.998;4.754;2023-05-10T04:14:39;57.55;;;30.35;;
33714;SDS011;20043;50.998;4.754;2023-05-10T04:17:04;49.78;;;29.27;;
33714;SDS011;20043;50.998;4.754;2023-05-10T04:19:30;47.92;;;29.88;;
33714;SDS011;20043;50.998;4.754;2023-05-10T04:21:57;54.53;;;30.55;;
33714;SDS011;20043;50.998;4.754;2023-05-10T04:24:23;61.97;;;31.25;;
33714;SDS011;20043;50.998;4.754;2023-05-10T04:26:48;53.63;;;32.53;;
33714;SDS011;20043;50.998;4.754;2023-05-10T04:29:14;59.95;;;32.78;;
33714;SDS011;20043;50.998;4.754;2023-05-10T04:31:40;59.00;;;32.13;;
33714;SDS011;20043;50.998;4.754;2023-05-10T04:34:05;57.10;;;32.63;;
33714;SDS011;20043;50.998;4.754;2023-05-10T04:36:31;61.25;;;33.42;;
33714;SDS011;20043;50.998;4.754;2023-05-10T04:39:01;57.67;;;33.10;;
33714;SDS011;20043;50.998;4.754;2023-05-10T04:41:27;56.83;;;31.85;;
33714;SDS011;20043;50.998;4.754;2023-05-10T04:43:53;57.63;;;32.53;;
33714;SDS011;20043;50.998;4.754;2023-05-10T04:46:19;60.05;;;33.65;;
33714;SDS011;20043;50.998;4.754;2023-05-10T04:48:45;57.05;;;32.78;;
33714;SDS011;20043;50.998;4.754;2023-05-10T04:51:10;62.13;;;33.28;;
33714;SDS011;20043;50.998;4.754;2023-05-10T04:53:36;61.15;;;33.15;;
33714;SDS011;20043;50.998;4.754;2023-05-10T04:56:02;57.22;;;32.13;;
33714;SDS011;20043;50.998;4.754;2023-05-10T04:58:27;62.35;;;34.67;;
33714;SDS011;20043;50.998;4.754;2023-05-10T05:00:53;65.38;;;34.10;;
33714;SDS011;20043;50.998;4.754;2023-05-10T05:03:19;71.85;;;36.05;;
33714;SDS011;20043;50.998;4.754;2023-05-10T05:05:44;70.68;;;36.67;;
33714;SDS011;20043;50.998;4.754;2023-05-10T05:08:10;69.93;;;36.25;;
33714;SDS011;20043;50.998;4.754;2023-05-10T05:10:36;80.90;;;39.45;;
33714;SDS011;20043;50.998;4.754;2023-05-10T05:13:01;76.82;;;39.53;;
33714;SDS011;20043;50.998;4.754;2023-05-10T05:15:27;77.68;;;39.17;;
33714;SDS011;20043;50.998;4.754;2023-05-10T05:17:53;80.88;;;38.60;;
33714;SDS011;20043;50.998;4.754;2023-05-10T05:20:18;82.40;;;42.50;;
33714;SDS011;20043;50.998;4.754;2023-05-10T05:22:44;78.07;;;40.28;;
33714;SDS011;20043;50.998;4.754;2023-05-10T05:25:10;78.85;;;41.45;;
33714;SDS011;20043;50.998;4.754;2023-05-10T05:27:36;80.60;;;42.10;;
33714;SDS011;20043;50.998;4.754;2023-05-10T05:30:02;82.70;;;40.83;;
33714;SDS011;20043;50.998;4.754;2023-05-10T05:32:29;84.70;;;42.75;;
33714;SDS011;20043;50.998;4.754;2023-05-10T05:34:55;90.80;;;44.45;;
33714;SDS011;20043;50.998;4.754;2023-05-10T05:37:21;84.78;;;44.63;;
33714;SDS011;20043;50.998;4.754;2023-05-10T05:39:48;84.38;;;45.20;;
33714;SDS011;20043;50.998;4.754;2023-05-10T05:42:14;87.55;;;44.45;;
33714;SDS011;20043;50.998;4.754;2023-05-10T05:44:41;81.97;;;43.35;;
33714;SDS011;20043;50.998;4.754;2023-05-10T05:47:07;83.72;;;43.58;;
33714;SDS011;20043;50.998;4.754;2023-05-10T05:49:33;84.43;;;42.95;;
33714;SDS011;20043;50.998;4.754;2023-05-10T05:51:59;84.55;;;44.55;;
33714;SDS011;20043;50.998;4.754;2023-05-10T05:54:25;82.82;;;42.88;;
33714;SDS011;20043;50.998;4.754;2023-05-10T05:56:53;88.13;;;44.45;;
33714;SDS011;20043;50.998;4.754;2023-05-10T05:59:20;82.15;;;44.38;;
33714;SDS011;20043;50.998;4.754;2023-05-10T17:20:36;17.00;;;9.35;;
33714;SDS011;20043;50.998;4.754;2023-05-10T17:23:09;13.70;;;9.48;;
33714;SDS011;20043;50.998;4.754;2023-05-10T17:25:35;15.82;;;9.85;;
33714;SDS011;20043;50.998;4.754;2023-05-10T17:28:01;18.02;;;9.80;;
33714;SDS011;20043;50.998;4.754;2023-05-10T17:30:27;14.45;;;10.20;;
33714;SDS011;20043;50.998;4.754;2023-05-10T17:32:56;13.70;;;8.93;;
33714;SDS011;20043;50.998;4.754;2023-05-10T17:35:25;14.68;;;9.13;;
33714;SDS011;20043;50.998;4.754;2023-05-10T17:37:51;13.77;;;9.02;;
33714;SDS011;20043;50.998;4.754;2023-05-10T17:40:17;13.90;;;9.48;;
33714;SDS011;20043;50.998;4.754;2023-05-10T17:42:43;15.20;;;9.55;;
33714;SDS011;20043;50.998;4.754;2023-05-10T17:45:09;12.68;;;9.27;;
33714;SDS011;20043;50.998;4.754;2023-05-10T17:47:35;12.68;;;8.68;;
33714;SDS011;20043;50.998;4.754;2023-05-10T17:50:00;13.02;;;8.18;;
33714;SDS011;20043;50.998;4.754;2023-05-10T17:52:26;10.82;;;7.70;;
33714;SDS011;20043;50.998;4.754;2023-05-10T17:54:53;11.63;;;7.57;;
33714;SDS011;20043;50.998;4.754;2023-05-10T17:57:19;17.13;;;7.63;;
33714;SDS011;20043;50.998;4.754;2023-05-10T17:59:45;14.18;;;7.50;;
33714;SDS011;20043;50.998;4.754;2023-05-10T18:02:12;12.75;;;7.25;;
33714;SDS011;20043;50.998;4.754;2023-05-10T18:04:41;12.55;;;7.15;;
33714;SDS011;20043;50.998;4.754;2023-05-10T18:07:10;11.32;;;6.53;;
33714;SDS011;20043;50.998;4.754;2023-05-10T18:09:35;10.68;;;7.18;;
33714;SDS011;20043;50.998;4.754;2023-05-10T18:12:01;13.05;;;7.22;;
33714;SDS011;20043;50.998;4.754;2023-05-10T18:14:27;13.27;;;7.82;;
33714;SDS011;20043;50.998;4.754;2023-05-10T18:16:53;12.75;;;7.35;;
33714;SDS011;20043;50.998;4.754;2023-05-10T18:19:19;10.60;;;7.30;;
33714;SDS011;20043;50.998;4.754;2023-05-10T18:21:46;10.40;;;7.30;;
33714;SDS011;20043;50.998;4.754;2023-05-10T18:24:12;15.18;;;7.88;;
33714;SDS011;20043;50.998;4.754;2023-05-10T18:26:38;13.15;;;7.28;;
33714;SDS011;20043;50.998;4.754;2023-05-10T18:29:03;10.23;;;7.18;;
33714;SDS011;20043;50.998;4.754;2023-05-10T18:31:29;12.90;;;7.55;;
33714;SDS011;20043;50.998;4.754;2023-05-10T18:33:55;13.60;;;7.78;;
33714;SDS011;20043;50.998;4.754;2023-05-10T18:36:21;13.68;;;7.22;;
33714;SDS011;20043;50.998;4.754;2023-05-10T18:38:47;14.52;;;7.68;;
33714;SDS011;20043;50.998;4.754;2023-05-10T18:41:13;15.15;;;7.55;;
33714;SDS011;20043;50.998;4.754;2023-05-10T18:43:39;10.27;;;7.22;;
33714;SDS011;20043;50.998;4.754;2023-05-10T18:46:06;13.07;;;7.13;;
33714;SDS011;20043;50.998;4.754;2023-05-10T18:48:32;13.88;;;7.43;;
33714;SDS011;20043;50.998;4.754;2023-05-10T18:50:58;11.63;;;7.95;;
33714;SDS011;20043;50.998;4.754;2023-05-10T18:53:23;14.85;;;8.40;;
33714;SDS011;20043;50.998;4.754;2023-05-10T18:55:58;14.00;;;8.65;;
33714;SDS011;20043;50.998;4.754;2023-05-10T18:58:26;14.83;;;9.30;;
33714;SDS011;20043;50.998;4.754;2023-05-10T19:00:52;14.93;;;9.95;;
33714;SDS011;20043;50.998;4.754;2023-05-10T19:03:18;17.33;;;10.15;;
33714;SDS011;20043;50.998;4.754;2023-05-10T19:05:44;14.68;;;10.00;;
33714;SDS011;20043;50.998;4.754;2023-05-10T19:08:12;13.18;;;8.43;;
33714;SDS011;20043;50.998;4.754;2023-05-10T19:10:41;12.95;;;8.77;;
33714;SDS011;20043;50.998;4.754;2023-05-10T19:13:07;17.08;;;10.35;;
33714;SDS011;20043;50.998;4.754;2023-05-10T19:15:32;15.23;;;9.48;;
33714;SDS011;20043;50.998;4.754;2023-05-10T19:17:58;14.65;;;10.02;;
33714;SDS011;20043;50.998;4.754;2023-05-10T19:20:23;16.48;;;10.25;;
33714;SDS011;20043;50.998;4.754;2023-05-10T19:22:49;22.40;;;10.55;;
33714;SDS011;20043;50.998;4.754;2023-05-10T19:25:15;17.85;;;10.77;;
33714;SDS011;20043;50.998;4.754;2023-05-10T19:27:40;18.73;;;10.40;;
33714;SDS011;20043;50.998;4.754;2023-05-10T19:30:06;15.35;;;10.82;;
33714;SDS011;20043;50.998;4.754;2023-05-10T19:32:32;18.42;;;11.00;;
33714;SDS011;20043;50.998;4.754;2023-05-10T19:34:58;17.02;;;10.88;;
33714;SDS011;20043;50.998;4.754;2023-05-10T19:37:24;16.33;;;11.20;;
33714;SDS011;20043;50.998;4.754;2023-05-10T19:39:50;14.75;;;10.85;;
33714;SDS011;20043;50.998;4.754;2023-05-10T19:42:15;21.50;;;12.57;;
33714;SDS011;20043;50.998;4.754;2023-05-10T19:44:41;16.50;;;12.75;;
33714;SDS011;20043;50.998;4.754;2023-05-10T19:47:07;18.27;;;11.70;;
33714;SDS011;20043;50.998;4.754;2023-05-10T19:49:33;21.85;;;12.70;;
33714;SDS011;20043;50.998;4.754;2023-05-10T19:52:00;17.88;;;11.63;;
33714;SDS011;20043;50.998;4.754;2023-05-10T19:54:27;20.10;;;12.60;;
33714;SDS011;20043;50.998;4.754;2023-05-10T19:56:52;20.20;;;12.18;;
33714;SDS011;20043;50.998;4.754;2023-05-10T19:59:18;22.40;;;12.57;;
33714;SDS011;20043;50.998;4.754;2023-05-10T20:01:44;21.92;;;14.20;;
33714;SDS011;20043;50.998;4.754;2023-05-10T20:04:10;22.15;;;13.75;;
33714;SDS011;20043;50.998;4.754;2023-05-10T20:06:36;23.65;;;14.52;;
33714;SDS011;20043;50.998;4.754;2023-05-10T20:09:02;18.15;;;12.98;;
33714;SDS011;20043;50.998;4.754;2023-05-10T20:11:27;23.55;;;13.63;;
33714;SDS011;20043;50.998;4.754;2023-05-10T20:13:53;22.10;;;15.05;;
33714;SDS011;20043;50.998;4.754;2023-05-10T20:16:19;26.70;;;15.48;;
33714;SDS011;20043;50.998;4.754;2023-05-10T20:18:44;25.63;;;14.75;;
33714;SDS011;20043;50.998;4.754;2023-05-10T20:21:10;26.45;;;14.93;;
33714;SDS011;20043;50.998;4.754;2023-05-10T20:23:36;23.33;;;14.75;;
33714;SDS011;20043;50.998;4.754;2023-05-10T20:26:01;25.80;;;14.90;;
33714;SDS011;20043;50.998;4.754;2023-05-10T20:28:27;22.38;;;13.45;;
33714;SDS011;20043;50.998;4.754;2023-05-10T20:30:53;30.85;;;13.77;;
33714;SDS011;20043;50.998;4.754;2023-05-10T20:33:20;22.40;;;13.95;;
33714;SDS011;20043;50.998;4.754;2023-05-10T20:35:46;23.27;;;14.50;;
33714;SDS011;20043;50.998;4.754;2023-05-10T20:38:12;20.50;;;14.07;;
33714;SDS011;20043;50.998;4.754;2023-05-10T20:40:37;21.85;;;14.73;;
33714;SDS011;20043;50.998;4.754;2023-05-10T20:43:03;21.92;;;14.00;;
33714;SDS011;20043;50.998;4.754;2023-05-10T20:45:30;22.75;;;13.38;;
33714;SDS011;20043;50.998;4.754;2023-05-10T20:47:56;27.73;;;13.65;;
33714;SDS011;20043;50.998;4.754;2023-05-10T20:50:22;23.10;;;13.70;;
33714;SDS011;20043;50.998;4.754;2023-05-10T20:52:48;24.63;;;13.18;;
33714;SDS011;20043;50.998;4.754;2023-05-10T20:55:16;23.25;;;12.45;;
33714;SDS011;20043;50.998;4.754;2023-05-10T20:57:42;26.20;;;13.68;;
33714;SDS011;20043;50.998;4.754;2023-05-10T21:00:08;20.95;;;13.32;;
33714;SDS011;20043;50.998;4.754;2023-05-10T21:02:34;25.55;;;13.63;;
33714;SDS011;20043;50.998;4.754;2023-05-10T21:04:59;32.35;;;15.68;;
33714;SDS011;20043;50.998;4.754;2023-05-10T21:07:25;24.52;;;14.70;;
33714;SDS011;20043;50.998;4.754;2023-05-10T21:09:51;26.08;;;15.75;;
33714;SDS011;20043;50.998;4.754;2023-05-10T21:12:16;30.40;;;17.60;;
33714;SDS011;20043;50.998;4.754;2023-05-10T21:14:42;27.17;;;17.08;;
33714;SDS011;20043;50.998;4.754;2023-05-10T21:17:10;33.08;;;18.20;;
33714;SDS011;20043;50.998;4.754;2023-05-10T21:19:36;29.48;;;18.83;;
33714;SDS011;20043;50.998;4.754;2023-05-10T21:22:02;30.30;;;17.98;;
33714;SDS011;20043;50.998;4.754;2023-05-10T21:24:29;28.55;;;17.08;;
33714;SDS011;20043;50.998;4.754;2023-05-10T21:26:55;27.90;;;16.90;;
33714;SDS011;20043;50.998;4.754;2023-05-10T21:29:20;32.50;;;17.10;;
33714;SDS011;20043;50.998;4.754;2023-05-10T21:31:46;36.65;;;17.95;;
33714;SDS011;20043;50.998;4.754;2023-05-10T21:34:12;28.70;;;17.70;;
33714;SDS011;20043;50.998;4.754;2023-05-10T21:36:38;33.10;;;16.35;;
33714;SDS011;20043;50.998;4.754;2023-05-10T21:39:04;33.72;;;19.13;;
33714;SDS011;20043;50.998;4.754;2023-05-10T21:41:29;37.53;;;19.83;;
33714;SDS011;20043;50.998;4.754;2023-05-10T21:44:03;39.45;;;20.83;;
33714;SDS011;20043;50.998;4.754;2023-05-10T21:46:29;36.35;;;20.88;;
33714;SDS011;20043;50.998;4.754;2023-05-10T21:48:54;38.20;;;20.88;;
33714;SDS011;20043;50.998;4.754;2023-05-10T21:51:20;37.85;;;21.70;;
33714;SDS011;20043;50.998;4.754;2023-05-10T21:53:46;38.28;;;20.75;;
33714;SDS011;20043;50.998;4.754;2023-05-10T21:56:12;36.83;;;21.52;;
33714;SDS011;20043;50.998;4.754;2023-05-10T21:58:37;31.40;;;19.70;;
33714;SDS011;20043;50.998;4.754;2023-05-10T22:01:03;36.10;;;20.00;;
33714;SDS011;20043;50.998;4.754;2023-05-10T22:03:29;38.47;;;22.38;;
33714;SDS011;20043;50.998;4.754;2023-05-10T22:05:55;38.55;;;22.80;;
33714;SDS011;20043;50.998;4.754;2023-05-10T22:08:20;44.00;;;23.98;;
33714;SDS011;20043;50.998;4.754;2023-05-10T22:10:46;38.45;;;23.63;;
33714;SDS011;20043;50.998;4.754;2023-05-10T22:13:12;46.67;;;24.02;;
33714;SDS011;20043;50.998;4.754;2023-05-10T22:15:37;41.00;;;23.45;;
33714;SDS011;20043;50.998;4.754;2023-05-10T22:18:03;43.78;;;23.88;;
33714;SDS011;20043;50.998;4.754;2023-05-10T22:20:36;38.80;;;23.55;;
33714;SDS011;20043;50.998;4.754;2023-05-10T22:23:01;41.35;;;23.48;;
33714;SDS011;20043;50.998;4.754;2023-05-10T22:25:27;38.58;;;22.90;;
33714;SDS011;20043;50.998;4.754;2023-05-10T22:27:53;41.78;;;22.70;;
33714;SDS011;20043;50.998;4.754;2023-05-10T22:30:18;41.22;;;22.85;;
33714;SDS011;20043;50.998;4.754;2023-05-10T22:32:44;41.22;;;20.92;;
33714;SDS011;20043;50.998;4.754;2023-05-10T22:35:10;33.83;;;20.90;;
33714;SDS011;20043;50.998;4.754;2023-05-10T22:37:36;39.08;;;20.23;;
33714;SDS011;20043;50.998;4.754;2023-05-10T22:40:02;39.70;;;20.60;;
33714;SDS011;20043;50.998;4.754;2023-05-10T22:42:28;31.55;;;18.85;;
33714;SDS011;20043;50.998;4.754;2023-05-10T22:44:53;36.00;;;17.95;;
33714;SDS011;20043;50.998;4.754;2023-05-10T22:47:19;33.70;;;19.30;;
33714;SDS011;20043;50.998;4.754;2023-05-10T22:49:45;34.08;;;19.35;;
33714;SDS011;20043;50.998;4.754;2023-05-10T22:52:11;36.05;;;19.88;;
33714;SDS011;20043;50.998;4.754;2023-05-10T22:54:37;37.22;;;19.67;;
33714;SDS011;20043;50.998;4.754;2023-05-10T22:57:02;36.95;;;18.67;;
33714;SDS011;20043;50.998;4.754;2023-05-10T22:59:28;31.63;;;18.85;;
33714;SDS011;20043;50.998;4.754;2023-05-10T23:01:54;39.13;;;20.70;;
33714;SDS011;20043;50.998;4.754;2023-05-10T23:04:19;40.85;;;20.25;;
33714;SDS011;20043;50.998;4.754;2023-05-10T23:06:45;43.10;;;19.73;;
33714;SDS011;20043;50.998;4.754;2023-05-10T23:09:11;41.45;;;18.73;;
33714;SDS011;20043;50.998;4.754;2023-05-10T23:11:36;37.15;;;19.55;;
33714;SDS011;20043;50.998;4.754;2023-05-10T23:14:02;34.30;;;19.10;;
33714;SDS011;20043;50.998;4.754;2023-05-10T23:16:28;36.97;;;18.70;;
33714;SDS011;20043;50.998;4.754;2023-05-10T23:18:54;40.40;;;18.42;;
33714;SDS011;20043;50.998;4.754;2023-05-10T23:21:20;39.67;;;18.67;;
33714;SDS011;20043;50.998;4.754;2023-05-10T23:23:53;41.95;;;20.27;;
33714;SDS011;20043;50.998;4.754;2023-05-10T23:26:18;35.03;;;19.42;;
33714;SDS011;20043;50.998;4.754;2023-05-10T23:28:45;37.85;;;19.00;;
33714;SDS011;20043;50.998;4.754;2023-05-10T23:31:11;38.75;;;18.85;;
33714;SDS011;20043;50.998;4.754;2023-05-10T23:33:36;38.13;;;19.20;;
33714;SDS011;20043;50.998;4.754;2023-05-10T23:36:02;37.17;;;19.77;;
33714;SDS011;20043;50.998;4.754;2023-05-10T23:38:28;34.88;;;19.05;;
33714;SDS011;20043;50.998;4.754;2023-05-10T23:40:53;35.92;;;19.98;;
33714;SDS011;20043;50.998;4.754;2023-05-10T23:43:19;45.85;;;20.33;;
33714;SDS011;20043;50.998;4.754;2023-05-10T23:45:52;45.25;;;21.27;;
33714;SDS011;20043;50.998;4.754;2023-05-10T23:48:18;39.97;;;20.20;;
33714;SDS011;20043;50.998;4.754;2023-05-10T23:50:44;39.88;;;19.65;;
33714;SDS011;20043;50.998;4.754;2023-05-10T23:53:10;36.72;;;18.35;;
33714;SDS011;20043;50.998;4.754;2023-05-10T23:55:36;41.47;;;20.45;;
33714;SDS011;20043;50.998;4.754;2023-05-10T23:58:01;39.40;;;19.75;;
